Time;durP1;ratioP1;P1;durP2;ratioP2;P2;SDS_P1;SDS_P2;PMS_P1;PMS_P2;Temp;Humidity;BMP_temperature;BMP_pressure;BME280_temperature;BME280_humidity;BME280_pressure;Samples;Min_cycle;Max_cycle;Signal;HPM_P1;HPM_P2
2020/12/01 00:02:39;;;;;;;22.63;8.52;;;9.30;50.30;;;;;;6239751;28;20493;-71
2020/12/01 00:05:40;;;;;;;22.63;9.00;;;9.40;50.60;;;;;;6243911;28;20041;-71
2020/12/01 00:08:42;;;;;;;21.52;8.80;;;9.30;50.60;;;;;;6221694;28;20104;-72
2020/12/01 00:11:42;;;;;;;19.83;7.93;;;9.30;50.60;;;;;;6236434;28;20037;-74
2020/12/01 00:14:43;;;;;;;23.75;9.00;;;9.30;50.50;;;;;;6219800;28;20195;-72
2020/12/01 00:17:45;;;;;;;17.35;7.00;;;9.30;50.50;;;;;;6204708;28;20034;-72
2020/12/01 00:20:45;;;;;;;24.83;8.15;;;9.30;50.60;;;;;;6219493;28;20038;-72
2020/12/01 00:23:47;;;;;;;19.02;8.85;;;9.30;50.60;;;;;;6236575;28;20069;-72
2020/12/01 00:26:48;;;;;;;20.65;8.05;;;9.30;50.60;;;;;;6251390;28;20385;-72
2020/12/01 00:29:49;;;;;;;27.05;7.78;;;9.40;50.60;;;;;;6218722;28;20030;-74
2020/12/01 00:32:51;;;;;;;22.65;8.35;;;9.40;50.60;;;;;;6219918;28;20038;-73
2020/12/01 00:35:52;;;;;;;24.48;8.63;;;9.40;50.60;;;;;;6230717;28;20100;-74
2020/12/01 00:38:54;;;;;;;19.30;7.65;;;9.40;51.20;;;;;;6219242;28;20141;-71
2020/12/01 00:41:54;;;;;;;27.88;9.50;;;9.50;50.60;;;;;;6215485;28;20034;-73
2020/12/01 00:44:55;;;;;;;21.48;8.60;;;9.50;50.60;;;;;;6207672;28;20034;-71
2020/12/01 00:47:56;;;;;;;24.08;8.73;;;9.50;50.50;;;;;;6213583;28;20030;-71
2020/12/01 00:50:57;;;;;;;21.58;7.85;;;9.50;50.40;;;;;;6219016;28;20022;-71
2020/12/01 00:53:58;;;;;;;22.00;8.07;;;9.50;50.50;;;;;;6245033;28;20451;-73
2020/12/01 00:56:59;;;;;;;22.27;8.40;;;9.50;50.40;;;;;;6242857;28;20037;-74
2020/12/01 01:00:01;;;;;;;21.15;8.40;;;9.50;50.50;;;;;;6217494;28;20042;-74
2020/12/01 01:03:21;;;;;;;20.33;8.55;;;9.50;50.50;;;;;;6216147;28;20049;-72
2020/12/01 01:06:22;;;;;;;20.10;7.43;;;9.50;50.60;;;;;;6214780;28;20054;-74
2020/12/01 01:09:23;;;;;;;25.98;9.25;;;9.50;50.60;;;;;;6215644;28;20062;-71
2020/12/01 01:12:24;;;;;;;21.00;8.13;;;9.50;50.60;;;;;;6214436;28;20511;-72
2020/12/01 01:15:31;;;;;;;25.48;8.93;;;9.50;50.60;;;;;;6216356;28;20049;-73
2020/12/01 01:18:33;;;;;;;21.75;8.23;;;9.50;50.60;;;;;;6216409;28;20045;-74
2020/12/01 01:21:43;;;;;;;22.73;8.82;;;9.50;50.50;;;;;;6217567;28;20038;-72
2020/12/01 01:24:44;;;;;;;19.45;8.25;;;9.50;50.50;;;;;;6200639;28;20050;-72
2020/12/01 01:27:45;;;;;;;22.23;8.65;;;9.50;50.50;;;;;;6233590;28;20042;-72
2020/12/01 01:30:46;;;;;;;21.48;8.07;;;9.50;50.50;;;;;;6232303;28;20044;-72
2020/12/01 01:33:47;;;;;;;25.10;8.77;;;9.50;50.60;;;;;;6217639;28;20133;-72
2020/12/01 01:36:49;;;;;;;20.48;8.63;;;9.50;50.50;;;;;;6213297;28;20402;-72
2020/12/01 01:39:50;;;;;;;21.08;8.30;;;9.50;50.50;;;;;;6215448;28;20038;-73
2020/12/01 01:42:52;;;;;;;21.40;7.82;;;9.50;50.50;;;;;;6232602;28;20045;-72
2020/12/01 01:45:53;;;;;;;25.73;8.68;;;9.50;50.50;;;;;;6196947;28;20038;-72
2020/12/01 01:48:54;;;;;;;24.02;9.70;;;9.50;50.50;;;;;;6217503;28;20048;-72
2020/12/01 01:51:57;;;;;;;24.63;8.88;;;9.40;50.60;;;;;;6217477;28;20084;-73
2020/12/01 01:55:02;;;;;;;24.15;8.70;;;9.40;50.80;;;;;;6267496;28;20104;-72
2020/12/01 01:58:04;;;;;;;22.90;7.85;;;9.40;50.90;;;;;;6241927;28;20030;-72
2020/12/01 02:01:11;;;;;;;20.05;7.78;;;9.40;50.80;;;;;;6259930;28;20033;-72
2020/12/01 02:04:15;;;;;;;21.58;8.50;;;9.40;50.80;;;;;;6261134;28;20470;-72
2020/12/01 02:07:17;;;;;;;23.13;7.88;;;9.40;50.60;;;;;;6210861;28;20061;-72
2020/12/01 02:10:19;;;;;;;22.50;8.50;;;9.40;50.60;;;;;;6222930;28;20033;-72
2020/12/01 02:13:32;;;;;;;23.45;8.70;;;9.40;50.60;;;;;;6237992;28;20048;-72
2020/12/01 02:16:36;;;;;;;19.67;7.35;;;9.40;50.60;;;;;;6220384;28;20036;-72
2020/12/01 02:19:38;;;;;;;22.35;8.07;;;9.40;50.70;;;;;;6220517;28;20467;-71
2020/12/01 02:22:47;;;;;;;22.02;7.78;;;9.40;50.70;;;;;;6222617;28;20431;-72
2020/12/01 02:25:48;;;;;;;22.23;7.68;;;9.40;50.70;;;;;;6219882;28;20041;-72
2020/12/01 02:28:49;;;;;;;23.42;8.43;;;9.40;50.70;;;;;;6239698;28;20463;-72
2020/12/01 02:31:50;;;;;;;21.05;8.55;;;9.30;50.60;;;;;;6221069;28;20038;-72
2020/12/01 02:34:53;;;;;;;21.05;7.97;;;9.30;50.60;;;;;;6219886;28;20099;-73
2020/12/01 02:37:54;;;;;;;22.55;8.02;;;9.30;50.70;;;;;;6205086;28;20541;-72
2020/12/01 02:40:54;;;;;;;19.63;7.80;;;9.30;50.70;;;;;;6222383;28;20141;-72
2020/12/01 02:43:57;;;;;;;19.52;7.75;;;9.30;50.70;;;;;;6229019;28;20034;-72
2020/12/01 02:47:01;;;;;;;16.27;7.80;;;9.20;50.80;;;;;;6219177;28;20030;-73
2020/12/01 02:50:03;;;;;;;19.55;7.18;;;9.20;50.90;;;;;;6220473;28;20502;-72
2020/12/01 02:53:04;;;;;;;20.73;7.35;;;9.20;51.00;;;;;;6221094;28;20081;-72
2020/12/01 02:56:05;;;;;;;19.48;6.22;;;9.20;50.90;;;;;;6219837;28;20037;-72
2020/12/01 02:59:06;;;;;;;20.48;7.05;;;9.10;50.80;;;;;;6220014;28;20029;-72
2020/12/01 03:02:07;;;;;;;21.85;8.02;;;9.10;50.90;;;;;;6236366;28;20467;-72
2020/12/01 03:05:08;;;;;;;18.85;6.85;;;9.10;51.00;;;;;;6219720;28;20521;-73
2020/12/01 03:08:09;;;;;;;15.25;6.93;;;9.10;51.00;;;;;;6217126;28;20038;-72
2020/12/01 03:11:11;;;;;;;18.17;7.85;;;9.10;51.10;;;;;;6231896;28;20033;-71
2020/12/01 03:14:12;;;;;;;18.25;7.45;;;9.10;51.10;;;;;;6220417;28;20042;-72
2020/12/01 03:17:13;;;;;;;17.75;6.40;;;9.00;51.10;;;;;;6237635;28;20039;-72
2020/12/01 03:20:14;;;;;;;16.23;7.50;;;9.00;51.20;;;;;;6220238;28;20568;-72
2020/12/01 03:23:15;;;;;;;16.75;6.80;;;9.00;51.10;;;;;;6220320;28;20050;-72
2020/12/01 03:26:19;;;;;;;19.67;7.60;;;9.00;51.10;;;;;;6221356;28;20073;-72
2020/12/01 03:29:19;;;;;;;17.20;7.38;;;9.00;51.20;;;;;;6216935;28;20371;-72
2020/12/01 03:33:13;;;;;;;18.73;7.95;;;8.90;51.20;;;;;;6220567;28;20034;-72
2020/12/01 03:36:16;;;;;;;17.98;6.72;;;8.90;51.20;;;;;;6243797;28;20037;-72
2020/12/01 03:39:17;;;;;;;22.90;8.57;;;8.90;51.90;;;;;;6261144;28;20033;-72
2020/12/01 03:42:18;;;;;;;20.27;7.85;;;8.90;51.40;;;;;;6261144;28;20052;-72
2020/12/01 03:45:19;;;;;;;25.77;8.43;;;8.90;51.60;;;;;;6244799;28;20469;-72
2020/12/01 03:48:20;;;;;;;22.10;7.93;;;8.90;51.50;;;;;;6260670;28;20083;-72
2020/12/01 03:51:21;;;;;;;20.70;7.45;;;8.90;51.40;;;;;;6243777;28;20478;-71
2020/12/01 03:54:22;;;;;;;19.23;8.88;;;9.00;51.40;;;;;;6244658;28;20154;-71
2020/12/01 03:57:22;;;;;;;17.42;7.72;;;9.00;51.30;;;;;;6244041;28;20098;-72
2020/12/01 04:00:26;;;;;;;19.48;7.72;;;9.00;51.30;;;;;;6244405;28;20463;-72
2020/12/01 04:03:27;;;;;;;25.55;8.27;;;9.00;51.30;;;;;;6247886;28;20105;-71
2020/12/01 04:06:28;;;;;;;20.42;8.13;;;9.00;51.30;;;;;;6245112;28;20045;-71
2020/12/01 04:09:28;;;;;;;20.63;7.22;;;9.10;51.40;;;;;;6238233;28;20049;-72
2020/12/01 04:12:29;;;;;;;18.83;7.63;;;9.10;51.30;;;;;;6244365;28;20113;-71
2020/12/01 04:15:31;;;;;;;19.25;7.68;;;9.10;51.20;;;;;;6244355;28;20121;-72
2020/12/01 04:18:31;;;;;;;21.73;8.25;;;9.10;51.30;;;;;;6217666;28;20033;-71
2020/12/01 04:21:32;;;;;;;23.00;7.28;;;9.00;51.50;;;;;;6242901;28;20068;-72
2020/12/01 04:24:33;;;;;;;25.20;7.95;;;9.00;51.70;;;;;;6243390;28;20508;-73
2020/12/01 04:27:35;;;;;;;18.70;7.75;;;9.00;51.80;;;;;;6259415;28;20068;-72
2020/12/01 04:30:37;;;;;;;18.75;7.82;;;9.00;51.90;;;;;;6239233;28;20442;-72
2020/12/01 04:33:38;;;;;;;24.67;7.90;;;8.90;52.10;;;;;;6243760;28;20045;-72
2020/12/01 04:36:39;;;;;;;24.02;8.60;;;8.90;52.20;;;;;;6240210;28;20052;-72
2020/12/01 04:39:40;;;;;;;21.60;7.57;;;8.80;52.30;;;;;;6244397;28;20094;-72
2020/12/01 04:42:54;;;;;;;19.70;7.35;;;8.80;52.40;;;;;;6255298;28;20425;-73
2020/12/01 04:45:55;;;;;;;20.13;8.43;;;8.80;52.50;;;;;;6247174;28;20116;-72
2020/12/01 04:49:06;;;;;;;22.23;8.35;;;8.90;52.70;;;;;;6248292;28;20033;-73
2020/12/01 04:52:28;;;;;;;24.33;9.23;;;8.80;52.70;;;;;;6239792;28;20037;-72
2020/12/01 04:55:48;;;;;;;24.65;9.18;;;8.90;52.80;;;;;;6242082;28;20033;-73
2020/12/01 04:59:31;;;;;;;23.30;7.97;;;8.90;52.80;;;;;;6243229;28;20462;-72
2020/12/01 05:02:50;;;;;;;21.40;8.07;;;8.80;53.10;;;;;;6201232;28;20042;-72
2020/12/01 05:09:44;;;;;;;18.75;8.32;;;8.70;53.50;;;;;;6192666;28;20544;-72
2020/12/01 05:12:57;;;;;;;31.38;8.45;;;8.70;53.70;;;;;;6193775;28;20046;-72
2020/12/01 05:16:23;;;;;;;21.45;8.38;;;8.70;54.00;;;;;;6192992;28;20432;-73
2020/12/01 05:19:33;;;;;;;20.95;8.70;;;8.70;54.30;;;;;;6194613;28;20143;-72
2020/12/01 05:22:34;;;;;;;23.33;9.50;;;8.70;54.50;;;;;;6176541;28;20038;-72
2020/12/01 05:25:35;;;;;;;18.75;7.75;;;8.70;54.80;;;;;;6190986;28;20420;-73
2020/12/01 05:28:46;;;;;;;19.58;8.43;;;8.70;54.90;;;;;;6194740;28;20038;-72
2020/12/01 05:31:46;;;;;;;24.02;9.48;;;8.60;55.20;;;;;;6188994;28;20043;-72
2020/12/01 05:34:47;;;;;;;22.38;8.75;;;8.50;55.70;;;;;;6156682;28;20054;-73
2020/12/01 05:37:52;;;;;;;21.33;8.85;;;8.40;56.20;;;;;;6169203;28;20499;-72
2020/12/01 05:41:21;;;;;;;27.88;8.90;;;8.40;56.70;;;;;;6168712;28;20055;-72
2020/12/01 05:44:25;;;;;;;21.53;9.00;;;8.40;56.80;;;;;;6187273;28;20035;-72
2020/12/01 05:47:42;;;;;;;23.73;9.70;;;8.40;56.90;;;;;;6225320;28;20292;-71
2020/12/01 05:51:00;;;;;;;23.10;8.32;;;8.40;57.00;;;;;;6201469;28;20044;-72
2020/12/01 05:54:01;;;;;;;24.63;8.98;;;8.40;57.00;;;;;;6193853;28;20038;-72
2020/12/01 05:57:14;;;;;;;29.90;9.05;;;8.40;57.10;;;;;;6192232;28;20046;-72
2020/12/01 06:00:18;;;;;;;22.73;9.23;;;8.30;57.30;;;;;;6194163;28;20042;-72
2020/12/01 06:03:46;;;;;;;25.92;9.18;;;8.30;57.70;;;;;;6203031;28;20038;-72
2020/12/01 06:07:12;;;;;;;27.43;9.93;;;8.20;57.80;;;;;;6209597;28;20040;-73
2020/12/01 06:10:44;;;;;;;24.98;10.18;;;8.10;58.20;;;;;;6191816;28;20319;-74
2020/12/01 06:13:46;;;;;;;24.60;9.02;;;8.00;58.60;;;;;;6193088;28;20037;-72
2020/12/01 06:16:57;;;;;;;23.05;8.98;;;8.00;59.00;;;;;;6190423;28;20065;-73
2020/12/01 06:20:18;;;;;;;18.80;8.50;;;7.90;59.20;;;;;;6198536;28;20049;-72
2020/12/01 06:23:25;;;;;;;26.55;8.32;;;7.90;59.50;;;;;;6233658;28;20041;-71
2020/12/01 06:26:32;;;;;;;30.30;8.98;;;7.80;59.70;;;;;;6240878;28;20580;-73
2020/12/01 06:29:32;;;;;;;30.95;10.65;;;7.70;59.90;;;;;;6264608;28;20168;-73
2020/12/01 06:32:56;;;;;;;29.58;9.95;;;7.60;60.30;;;;;;6250998;28;20040;-74
2020/12/01 06:36:34;;;;;;;32.35;9.65;;;7.50;60.70;;;;;;6256052;28;20991;-72
2020/12/01 06:40:04;;;;;;;22.75;8.05;;;7.50;61.10;;;;;;6246337;28;20022;-73
2020/12/01 06:43:34;;;;;;;23.80;8.57;;;7.50;61.40;;;;;;6255186;28;20102;-72
2020/12/01 06:46:44;;;;;;;29.77;9.77;;;7.50;61.50;;;;;;6219068;28;20034;-72
2020/12/01 06:49:45;;;;;;;23.80;9.75;;;7.50;61.40;;;;;;6237809;28;20350;-72
2020/12/01 06:52:59;;;;;;;20.80;9.07;;;7.60;61.50;;;;;;6232253;28;20079;-72
2020/12/01 06:56:13;;;;;;;26.85;9.77;;;7.50;61.60;;;;;;6261034;28;20084;-72
2020/12/01 06:59:14;;;;;;;24.27;9.88;;;7.60;61.50;;;;;;6244319;28;20045;-72
2020/12/01 07:02:32;;;;;;;23.42;9.32;;;7.60;61.50;;;;;;6241448;28;20061;-74
2020/12/01 07:05:34;;;;;;;24.83;9.73;;;7.70;61.50;;;;;;6219964;28;20049;-75
2020/12/01 07:08:35;;;;;;;25.23;9.55;;;7.70;61.50;;;;;;6220413;28;20056;-74
2020/12/01 07:12:08;;;;;;;30.00;11.18;;;7.70;61.50;;;;;;6237943;28;20431;-73
2020/12/01 07:15:35;;;;;;;25.70;9.85;;;7.70;61.60;;;;;;6190471;28;20054;-72
2020/12/01 07:18:36;;;;;;;21.10;8.00;;;7.70;61.50;;;;;;6210814;28;20409;-73
2020/12/01 07:21:55;;;;;;;28.67;11.18;;;7.80;61.40;;;;;;6242633;28;20095;-72
2020/12/01 07:25:09;;;;;;;29.95;10.38;;;7.80;61.10;;;;;;6224639;28;20191;-72
2020/12/01 07:28:20;;;;;;;25.23;9.77;;;7.90;61.00;;;;;;6242902;28;20049;-73
2020/12/01 07:31:33;;;;;;;28.40;9.77;;;7.90;61.00;;;;;;6225601;28;20045;-72
2020/12/01 07:34:34;;;;;;;25.60;9.65;;;8.00;61.00;;;;;;6226726;28;20121;-72
2020/12/01 07:37:51;;;;;;;34.95;10.40;;;8.00;61.00;;;;;;6243224;28;20045;-72
2020/12/01 07:40:56;;;;;;;24.25;8.40;;;8.00;60.70;;;;;;6241613;28;20044;-72
2020/12/01 07:44:10;;;;;;;29.08;10.98;;;8.00;60.70;;;;;;6223613;28;20034;-71
2020/12/01 07:47:24;;;;;;;26.75;9.57;;;7.90;60.80;;;;;;6242294;28;20379;-72
2020/12/01 07:50:27;;;;;;;28.63;9.85;;;7.80;60.90;;;;;;6242564;28;20175;-72
2020/12/01 07:53:28;;;;;;;24.73;9.00;;;7.90;61.10;;;;;;6239998;28;20029;-72
2020/12/01 07:56:31;;;;;;;25.92;10.60;;;8.00;61.30;;;;;;6244899;28;20033;-74
2020/12/01 07:59:40;;;;;;;33.58;11.07;;;8.00;61.30;;;;;;6230646;28;20036;-72
2020/12/01 08:02:41;;;;;;;24.15;10.35;;;8.00;61.20;;;;;;6219122;28;20459;-73
2020/12/01 08:05:43;;;;;;;26.38;10.80;;;8.00;60.90;;;;;;6217374;28;20049;-72
2020/12/01 08:08:46;;;;;;;30.30;11.63;;;8.00;61.00;;;;;;6235412;28;20144;-73
2020/12/01 08:11:48;;;;;;;31.27;10.20;;;8.00;61.40;;;;;;6225827;28;20110;-71
2020/12/01 08:14:51;;;;;;;29.52;11.27;;;8.00;61.40;;;;;;6205298;28;20034;-73
2020/12/01 08:17:53;;;;;;;31.65;12.00;;;8.00;61.30;;;;;;6235508;28;20042;-72
2020/12/01 08:20:55;;;;;;;23.63;10.38;;;8.00;61.30;;;;;;6200606;28;20048;-72
2020/12/01 08:24:00;;;;;;;31.33;11.43;;;8.10;62.10;;;;;;6198415;28;20080;-72
2020/12/01 08:27:18;;;;;;;27.75;10.70;;;8.10;61.30;;;;;;6226195;28;20048;-72
2020/12/01 08:30:45;;;;;;;30.65;10.15;;;8.10;61.30;;;;;;6242299;28;20034;-73
2020/12/01 08:34:12;;;;;;;32.45;11.57;;;8.10;61.30;;;;;;6208494;28;20446;-72
2020/12/01 08:37:34;;;;;;;28.27;11.43;;;8.10;61.40;;;;;;6197132;28;20093;-72
2020/12/01 08:40:49;;;;;;;32.08;10.55;;;8.10;61.40;;;;;;6205751;28;20039;-72
2020/12/01 08:44:00;;;;;;;28.92;11.07;;;8.20;61.40;;;;;;6192181;28;20095;-75
2020/12/01 08:47:03;;;;;;;26.70;9.68;;;8.20;61.20;;;;;;6184709;28;20039;-72
2020/12/01 08:50:31;;;;;;;27.08;10.65;;;8.30;61.00;;;;;;6178317;28;20117;-72
2020/12/01 08:53:43;;;;;;;34.08;12.00;;;8.40;60.80;;;;;;6175126;28;20133;-74
2020/12/01 08:56:47;;;;;;;31.05;12.35;;;8.30;60.50;;;;;;6189762;28;20026;-74
2020/12/01 08:59:54;;;;;;;31.15;10.63;;;8.40;60.40;;;;;;6188724;28;20026;-73
2020/12/01 09:03:05;;;;;;;22.92;9.88;;;8.50;60.50;;;;;;6151958;28;20401;-72
2020/12/01 09:06:21;;;;;;;27.20;10.23;;;8.50;60.40;;;;;;6152343;28;20427;-73
2020/12/01 09:09:24;;;;;;;23.88;9.95;;;8.60;60.20;;;;;;6165114;28;20473;-72
2020/12/01 09:19:04;;;;;;;32.38;10.38;;;8.70;59.90;;;;;;6242946;28;20402;-71
2020/12/01 09:22:24;;;;;;;28.17;10.95;;;8.80;59.70;;;;;;6215757;28;20041;-73
2020/12/01 09:25:27;;;;;;;19.23;9.20;;;8.90;59.70;;;;;;6214916;28;20038;-73
2020/12/01 09:28:31;;;;;;;29.10;10.57;;;9.00;59.40;;;;;;6218243;28;20049;-73
2020/12/01 09:31:37;;;;;;;28.90;11.02;;;9.00;59.10;;;;;;6215375;28;20049;-72
2020/12/01 09:34:38;;;;;;;28.40;10.48;;;9.00;58.90;;;;;;6199097;28;20038;-73
2020/12/01 09:37:39;;;;;;;29.63;11.30;;;9.00;59.00;;;;;;6212196;28;20432;-72
2020/12/01 09:40:40;;;;;;;29.73;12.15;;;9.10;59.20;;;;;;6218519;28;20113;-73
2020/12/01 09:43:46;;;;;;;25.40;10.35;;;9.20;59.20;;;;;;6224741;28;20045;-74
2020/12/01 09:46:58;;;;;;;30.10;11.55;;;9.30;59.10;;;;;;6250276;28;20100;-73
2020/12/01 09:49:58;;;;;;;24.40;9.55;;;9.50;59.00;;;;;;6230943;28;20406;-73
2020/12/01 10:03:36;;;;;;;32.35;12.52;;;9.20;59.30;;;;;;6240980;28;20382;-72
2020/12/01 10:26:42;;;;;;;28.38;11.10;;;9.00;61.20;;;;;;6251325;28;20511;-73
2020/12/01 10:31:15;;;;;;;32.75;11.32;;;9.00;61.30;;;;;;6264751;28;20053;-73
2020/12/01 10:36:20;;;;;;;32.97;10.63;;;8.90;61.00;;;;;;6248585;28;20065;-73
2020/12/01 10:39:23;;;;;;;26.65;11.60;;;8.90;61.20;;;;;;6242864;28;20472;-73
2020/12/01 10:42:24;;;;;;;28.25;11.32;;;9.00;61.40;;;;;;6254872;28;20037;-74
2020/12/01 10:45:28;;;;;;;30.90;12.52;;;9.00;61.40;;;;;;6235725;28;20029;-72
2020/12/01 10:48:29;;;;;;;34.33;11.38;;;9.10;61.30;;;;;;6246932;28;20036;-73
2020/12/01 10:51:32;;;;;;;27.67;11.18;;;9.20;61.20;;;;;;6250407;28;20147;-74
2020/12/01 10:54:33;;;;;;;28.60;11.27;;;9.30;61.20;;;;;;6217465;28;20040;-74
2020/12/01 10:57:35;;;;;;;26.52;10.45;;;9.40;60.90;;;;;;6243635;28;20033;-73
2020/12/01 11:00:36;;;;;;;33.17;12.30;;;9.50;60.60;;;;;;6243602;28;20045;-72
2020/12/01 11:03:37;;;;;;;35.22;12.25;;;9.60;60.30;;;;;;6225799;28;20128;-73
2020/12/01 11:06:39;;;;;;;27.83;11.57;;;9.60;60.00;;;;;;6219068;28;20030;-73
2020/12/01 11:09:40;;;;;;;33.75;12.07;;;9.70;60.30;;;;;;6217700;28;20033;-74
2020/12/01 11:12:41;;;;;;;50.42;16.90;;;9.80;60.30;;;;;;6219833;28;20030;-73
2020/12/01 11:15:41;;;;;;;30.33;12.45;;;9.90;59.80;;;;;;6221543;28;20026;-72
2020/12/01 11:18:42;;;;;;;36.75;14.90;;;9.90;59.90;;;;;;6218611;28;20049;-73
2020/12/01 11:21:43;;;;;;;27.15;11.02;;;9.80;59.90;;;;;;6259114;28;20471;-73
2020/12/01 11:24:44;;;;;;;34.97;14.60;;;9.80;59.90;;;;;;6244267;28;20522;-72
2020/12/01 11:27:46;;;;;;;36.30;13.25;;;9.70;59.90;;;;;;6235710;28;20474;-74
2020/12/01 11:30:47;;;;;;;34.75;13.32;;;9.60;60.10;;;;;;6240777;28;20469;-73
2020/12/01 11:34:07;;;;;;;35.10;12.73;;;9.50;60.60;;;;;;6244813;28;20025;-73
2020/12/01 11:37:09;;;;;;;29.88;11.20;;;9.40;60.80;;;;;;6240738;28;20113;-75
2020/12/01 11:40:11;;;;;;;30.13;13.55;;;9.40;60.90;;;;;;6236990;28;20041;-73
2020/12/01 11:43:12;;;;;;;37.60;13.85;;;9.40;61.00;;;;;;6243768;28;20034;-74
2020/12/01 11:46:13;;;;;;;34.78;13.85;;;9.40;61.30;;;;;;6247156;28;20029;-72
2020/12/01 11:49:14;;;;;;;44.03;15.35;;;9.40;61.40;;;;;;6243533;28;20041;-74
2020/12/01 11:52:15;;;;;;;39.25;14.88;;;9.40;61.50;;;;;;6242712;28;20054;-73
2020/12/01 11:55:16;;;;;;;37.20;13.93;;;9.30;61.50;;;;;;6253130;28;20065;-73
2020/12/01 11:58:17;;;;;;;31.58;13.27;;;9.30;61.60;;;;;;6255492;28;20128;-73
2020/12/01 12:01:18;;;;;;;32.00;14.00;;;9.30;61.60;;;;;;6242830;28;20378;-72
2020/12/01 12:04:20;;;;;;;33.47;13.13;;;9.30;61.80;;;;;;6238929;28;21618;-73
2020/12/01 12:07:21;;;;;;;36.42;14.48;;;9.30;61.80;;;;;;6225799;28;20046;-73
2020/12/01 12:10:22;;;;;;;34.17;13.90;;;9.30;61.70;;;;;;6224297;28;20056;-73
2020/12/01 12:13:23;;;;;;;38.15;13.82;;;9.30;61.70;;;;;;6242896;28;20033;-73
2020/12/01 12:16:24;;;;;;;32.63;12.65;;;9.30;61.70;;;;;;6241172;28;20029;-72
2020/12/01 12:19:24;;;;;;;32.45;13.13;;;9.50;61.60;;;;;;6241491;28;20072;-72
2020/12/01 12:22:25;;;;;;;31.50;12.00;;;9.60;61.40;;;;;;6240163;28;20045;-72
2020/12/01 12:25:26;;;;;;;27.55;11.75;;;9.70;60.90;;;;;;6206053;28;20332;-72
2020/12/01 12:28:28;;;;;;;42.20;13.82;;;9.80;60.50;;;;;;6218441;28;20034;-72
2020/12/01 12:31:29;;;;;;;34.53;12.00;;;9.90;60.20;;;;;;6221282;28;20036;-72
2020/12/01 12:34:30;;;;;;;25.55;11.50;;;10.00;60.30;;;;;;6250951;28;20060;-73
2020/12/01 12:37:31;;;;;;;35.80;13.13;;;10.10;59.90;;;;;;6236247;28;20574;-73
2020/12/01 12:40:32;;;;;;;35.67;13.85;;;10.10;59.60;;;;;;6240835;28;20033;-72
2020/12/01 12:43:33;;;;;;;30.67;11.63;;;10.20;59.60;;;;;;6238994;28;20484;-72
2020/12/01 12:46:36;;;;;;;31.27;12.82;;;10.10;59.50;;;;;;6242472;28;20033;-72
2020/12/01 12:49:38;;;;;;;33.60;12.93;;;10.10;59.50;;;;;;6241764;28;20087;-73
2020/12/01 12:52:39;;;;;;;36.63;13.45;;;10.10;59.70;;;;;;6271553;28;20049;-73
2020/12/01 12:55:40;;;;;;;27.42;11.75;;;10.20;59.80;;;;;;6242092;28;20065;-72
2020/12/01 12:58:41;;;;;;;21.17;8.25;;;10.20;59.80;;;;;;6241396;28;20053;-74
2020/12/01 13:01:42;;;;;;;20.10;7.93;;;10.20;59.90;;;;;;6223312;28;20136;-72
2020/12/01 13:04:43;;;;;;;18.65;7.50;;;10.20;60.50;;;;;;6241270;28;20584;-73
2020/12/01 13:07:43;;;;;;;15.05;5.60;;;10.30;59.80;;;;;;6266610;28;20033;-73
2020/12/01 13:10:44;;;;;;;10.52;4.50;;;10.40;59.50;;;;;;6238455;28;20040;-72
2020/12/01 13:13:45;;;;;;;11.85;4.90;;;10.40;59.20;;;;;;6240554;28;20048;-72
2020/12/01 13:16:47;;;;;;;11.98;4.28;;;10.50;59.20;;;;;;6256099;28;20082;-73
2020/12/01 13:19:48;;;;;;;8.05;4.28;;;10.50;59.00;;;;;;6238519;28;20048;-72
2020/12/01 13:22:50;;;;;;;13.57;5.70;;;10.50;58.80;;;;;;6241896;28;20045;-72
2020/12/01 13:25:51;;;;;;;21.75;8.80;;;10.60;58.80;;;;;;6264543;28;20042;-73
2020/12/01 13:28:52;;;;;;;18.45;8.02;;;10.60;58.70;;;;;;6239257;28;20370;-73
2020/12/01 13:31:52;;;;;;;16.88;5.90;;;10.60;58.80;;;;;;6242114;28;20041;-73
2020/12/01 13:34:53;;;;;;;11.77;4.93;;;10.80;58.60;;;;;;6240285;28;20057;-74
2020/12/01 13:37:54;;;;;;;14.90;4.78;;;10.90;58.00;;;;;;6240035;28;20040;-73
2020/12/01 13:40:55;;;;;;;8.60;4.05;;;10.90;57.70;;;;;;6243923;28;20073;-73
2020/12/01 13:43:56;;;;;;;9.98;3.92;;;10.90;57.40;;;;;;6241370;28;20030;-73
2020/12/01 13:46:57;;;;;;;16.90;7.30;;;10.90;57.30;;;;;;6216924;28;20049;-73
2020/12/01 13:49:58;;;;;;;14.52;5.57;;;10.80;57.50;;;;;;6215637;28;20041;-73
2020/12/01 13:52:59;;;;;;;49.83;28.27;;;10.70;57.80;;;;;;6221117;28;20060;-73
2020/12/01 13:56:00;;;;;;;19.33;8.45;;;10.60;57.90;;;;;;6223942;28;20355;-73
2020/12/01 13:59:01;;;;;;;19.63;7.75;;;10.60;58.10;;;;;;6221908;28;20475;-72
2020/12/01 14:02:02;;;;;;;11.27;4.63;;;10.60;58.10;;;;;;6219418;28;20038;-72
2020/12/01 14:05:03;;;;;;;14.50;5.75;;;10.50;57.70;;;;;;6236102;28;20038;-74
2020/12/01 14:08:04;;;;;;;11.55;4.22;;;10.50;57.80;;;;;;6217721;28;21500;-72
2020/12/01 14:11:05;;;;;;;10.48;4.43;;;10.60;57.50;;;;;;6233982;28;20041;-72
2020/12/01 14:14:06;;;;;;;9.80;4.35;;;10.70;57.30;;;;;;6216803;28;20463;-73
2020/12/01 14:17:07;;;;;;;14.50;5.65;;;10.70;56.90;;;;;;6220537;28;20053;-73
2020/12/01 14:20:10;;;;;;;12.15;5.10;;;10.70;56.80;;;;;;6219408;28;20056;-73
2020/12/01 14:23:11;;;;;;;13.50;5.32;;;10.70;56.70;;;;;;6218725;28;20375;-73
2020/12/01 14:26:14;;;;;;;16.38;5.97;;;10.70;56.60;;;;;;6200576;28;20033;-73
2020/12/01 14:29:15;;;;;;;15.32;6.93;;;10.70;56.70;;;;;;6236428;28;20042;-73
2020/12/01 14:32:16;;;;;;;10.95;4.50;;;10.70;56.80;;;;;;6232526;28;20069;-72
2020/12/01 14:35:24;;;;;;;12.35;5.30;;;10.70;57.00;;;;;;6218391;28;20042;-73
2020/12/01 14:38:25;;;;;;;16.95;4.82;;;10.60;56.80;;;;;;6218714;28;20057;-73
2020/12/01 14:41:26;;;;;;;7.38;3.13;;;10.50;56.70;;;;;;6220199;28;20049;-72
2020/12/01 14:44:27;;;;;;;8.63;3.70;;;10.40;56.70;;;;;;6233699;28;20050;-73
2020/12/01 14:47:36;;;;;;;10.77;4.53;;;10.40;56.70;;;;;;6219552;28;20103;-73
2020/12/01 14:50:49;;;;;;;6.43;3.05;;;10.30;56.60;;;;;;6250314;28;20426;-72
2020/12/01 14:54:05;;;;;;;11.88;3.85;;;10.30;56.50;;;;;;6257470;28;20043;-75
2020/12/01 14:57:34;;;;;;;8.85;3.95;;;10.30;56.70;;;;;;6226296;28;20119;-73
2020/12/01 15:00:48;;;;;;;8.38;4.30;;;10.10;56.80;;;;;;6273655;28;20033;-72
2020/12/01 15:04:22;;;;;;;11.13;5.28;;;10.20;57.00;;;;;;6244047;28;20176;-72
2020/12/01 15:07:49;;;;;;;14.00;6.53;;;10.10;57.00;;;;;;6256675;28;20487;-73
2020/12/01 15:11:08;;;;;;;19.05;6.90;;;10.10;57.50;;;;;;6191189;28;20057;-72
2020/12/01 15:14:09;;;;;;;18.08;7.30;;;10.10;57.70;;;;;;6192064;28;20034;-72
2020/12/01 15:17:10;;;;;;;17.67;7.60;;;10.10;57.80;;;;;;6189922;28;20117;-73
2020/12/01 15:20:16;;;;;;;14.60;6.68;;;10.10;58.00;;;;;;6175868;28;20435;-73
2020/12/01 15:23:28;;;;;;;13.55;5.60;;;10.10;58.10;;;;;;6192507;28;20451;-73
2020/12/01 15:26:30;;;;;;;14.98;6.55;;;10.10;58.10;;;;;;6191935;28;20030;-73
2020/12/01 15:29:37;;;;;;;15.63;6.40;;;10.00;58.20;;;;;;6157426;28;20054;-72
2020/12/01 15:32:38;;;;;;;10.20;4.75;;;9.90;58.40;;;;;;6191226;28;20035;-72
2020/12/01 15:35:42;;;;;;;12.00;4.93;;;9.90;58.50;;;;;;6171557;28;20050;-74
2020/12/01 15:38:43;;;;;;;9.05;5.03;;;9.80;58.60;;;;;;6206134;28;20035;-72
2020/12/01 15:41:45;;;;;;;9.80;5.03;;;9.80;58.90;;;;;;6191467;28;20065;-72
2020/12/01 15:44:46;;;;;;;9.35;4.13;;;9.70;59.10;;;;;;6193228;28;20487;-73
2020/12/01 15:47:49;;;;;;;14.45;5.22;;;9.70;59.30;;;;;;6207498;28;20044;-72
2020/12/01 15:51:24;;;;;;;10.65;4.68;;;9.70;59.40;;;;;;6231520;28;20061;-73
2020/12/01 15:55:07;;;;;;;13.50;4.55;;;9.70;59.50;;;;;;6231235;28;20058;-73
2020/12/01 15:58:37;;;;;;;8.13;4.43;;;9.60;59.60;;;;;;6182413;28;20033;-73
2020/12/01 16:01:50;;;;;;;6.85;3.78;;;9.50;59.60;;;;;;6211365;28;20041;-72
2020/12/01 16:05:28;;;;;;;7.07;3.58;;;9.50;59.70;;;;;;6214958;28;20447;-72
2020/12/01 16:09:09;;;;;;;10.25;4.38;;;9.40;59.90;;;;;;6213118;28;20092;-74
2020/12/01 16:12:24;;;;;;;8.98;3.72;;;9.40;59.90;;;;;;6215262;28;20038;-72
2020/12/01 16:15:30;;;;;;;11.48;4.07;;;9.40;60.10;;;;;;6199525;28;20044;-73
2020/12/01 16:18:45;;;;;;;8.35;3.88;;;9.30;60.10;;;;;;6208045;28;20124;-72
2020/12/01 16:21:50;;;;;;;8.45;3.47;;;9.30;60.30;;;;;;6212921;28;20084;-72
2020/12/01 16:24:54;;;;;;;5.15;2.92;;;9.20;60.40;;;;;;6215788;28;20085;-72
2020/12/01 16:27:55;;;;;;;6.47;3.40;;;9.20;60.40;;;;;;6215474;28;20138;-73
2020/12/01 16:30:57;;;;;;;4.30;2.80;;;9.20;60.40;;;;;;6196429;28;20034;-73
2020/12/01 16:33:58;;;;;;;6.20;2.72;;;9.20;60.40;;;;;;6220820;28;20080;-73
2020/12/01 16:37:13;;;;;;;5.75;3.08;;;9.20;60.30;;;;;;6242935;28;20037;-72
2020/12/01 16:40:22;;;;;;;8.60;3.97;;;9.20;60.40;;;;;;6249036;28;20076;-72
2020/12/01 16:43:38;;;;;;;6.47;2.90;;;9.10;60.40;;;;;;6234650;28;20041;-72
2020/12/01 16:46:57;;;;;;;6.75;2.70;;;9.20;60.40;;;;;;6241858;28;20044;-73
2020/12/01 16:49:58;;;;;;;;;;;9.20;60.20;;;;;;6225683;28;20038;-72